Time;durP1;ratioP1;P1;durP2;ratioP2;P2;SDS_P1;SDS_P2;PMS_P1;PMS_P2;Temp;Humidity;BMP_temperature;BMP_pressure;BME280_temperature;BME280_humidity;BME280_pressure;Samples;Min_cycle;Max_cycle;Signal;HPM_P1;HPM_P2
2022/03/17 00:00:31;;;;;;;38.17;27.70;;;9.50;1.00;;;;;;5071808;28;20047;-76
2022/03/17 00:02:59;;;;;;;38.08;28.48;;;9.50;1.00;;;;;;5072385;28;20044;-75
2022/03/17 00:05:26;;;;;;;45.42;32.15;;;9.40;1.00;;;;;;5073016;28;20044;-75
2022/03/17 00:07:54;;;;;;;42.33;30.00;;;9.40;1.00;;;;;;5089243;28;20483;-75
2022/03/17 00:10:22;;;;;;;44.00;31.70;;;9.40;1.00;;;;;;5088692;28;20048;-75
2022/03/17 00:12:51;;;;;;;44.67;33.55;;;9.30;1.00;;;;;;5055631;28;20076;-77
2022/03/17 00:15:18;;;;;;;39.63;30.33;;;9.30;1.00;;;;;;5075407;28;20065;-76
2022/03/17 00:17:46;;;;;;;42.55;30.02;;;9.30;1.00;;;;;;5069156;28;20072;-75
2022/03/17 00:20:14;;;;;;;39.25;30.45;;;9.40;1.00;;;;;;5071877;28;20392;-76
2022/03/17 00:22:42;;;;;;;44.53;31.35;;;9.30;1.00;;;;;;5078380;28;20047;-76
2022/03/17 00:25:11;;;;;;;48.13;33.53;;;9.40;1.00;;;;;;5088007;28;20059;-74
2022/03/17 00:27:39;;;;;;;48.58;35.38;;;9.30;1.00;;;;;;5081743;28;20132;-76
2022/03/17 00:30:09;;;;;;;55.05;37.65;;;9.30;1.00;;;;;;5076923;28;20048;-76
2022/03/17 00:32:38;;;;;;;53.13;37.22;;;9.30;1.00;;;;;;5076702;28;20418;-76
2022/03/17 00:37:51;;;;;;;50.65;34.92;;;9.20;1.00;;;;;;5076691;28;20495;-76
2022/03/17 00:40:19;;;;;;;52.70;36.65;;;9.20;1.00;;;;;;5075456;28;20476;-75
2022/03/17 00:42:46;;;;;;;41.50;31.60;;;9.10;1.00;;;;;;5077300;28;20036;-75
2022/03/17 00:45:15;;;;;;;38.22;28.27;;;9.10;1.00;;;;;;5075788;28;20044;-76
2022/03/17 00:47:42;;;;;;;39.38;27.92;;;9.10;1.00;;;;;;5076286;28;20072;-75
2022/03/17 00:50:11;;;;;;;34.13;27.27;;;9.00;1.00;;;;;;5077171;28;20422;-75
2022/03/17 00:52:39;;;;;;;38.00;29.45;;;8.90;1.00;;;;;;5074916;28;20136;-76
2022/03/17 00:55:08;;;;;;;40.83;29.13;;;8.90;1.00;;;;;;5075922;28;20048;-75
2022/03/17 00:57:37;;;;;;;39.47;29.58;;;8.90;1.00;;;;;;5076739;28;20044;-76
2022/03/17 01:00:06;;;;;;;36.67;28.63;;;8.90;1.00;;;;;;5075589;28;20576;-76
2022/03/17 01:02:36;;;;;;;42.17;30.85;;;9.00;1.00;;;;;;5074910;28;20040;-76
2022/03/17 01:05:04;;;;;;;33.08;24.80;;;9.00;1.00;;;;;;5076755;28;20033;-75
2022/03/17 01:07:32;;;;;;;34.80;27.15;;;9.00;1.00;;;;;;5075411;28;20044;-77
2022/03/17 01:10:00;;;;;;;33.90;28.05;;;9.00;1.00;;;;;;5093447;28;20070;-77
2022/03/17 01:12:28;;;;;;;28.10;23.23;;;9.00;1.00;;;;;;5076328;28;20058;-75
2022/03/17 01:14:55;;;;;;;32.10;24.52;;;8.90;1.00;;;;;;5077580;28;20049;-77
2022/03/17 01:17:23;;;;;;;26.85;21.83;;;8.90;1.00;;;;;;5077108;28;20564;-77
2022/03/17 01:19:52;;;;;;;27.50;22.55;;;8.80;1.00;;;;;;5077271;28;20055;-79
2022/03/17 01:22:21;;;;;;;30.15;23.17;;;8.80;1.00;;;;;;5081712;28;20096;-79
2022/03/17 01:24:49;;;;;;;30.05;23.80;;;8.70;1.00;;;;;;5089603;28;20044;-78
2022/03/17 01:27:20;;;;;;;29.67;24.73;;;8.70;1.00;;;;;;5098110;28;20024;-78
2022/03/17 01:29:47;;;;;;;31.38;24.33;;;8.60;1.00;;;;;;5097777;28;20072;-79
2022/03/17 01:32:15;;;;;;;28.48;23.30;;;8.60;1.00;;;;;;5096587;28;20051;-77
2022/03/17 01:34:42;;;;;;;31.38;23.73;;;8.70;1.00;;;;;;5112018;28;20052;-78
2022/03/17 01:37:11;;;;;;;36.17;25.17;;;8.70;1.00;;;;;;5096922;28;20075;-78
2022/03/17 01:39:39;;;;;;;31.85;24.40;;;8.70;1.00;;;;;;5075788;28;20036;-77
2022/03/17 01:42:09;;;;;;;31.95;24.23;;;8.60;1.00;;;;;;5092178;28;20072;-77
2022/03/17 01:44:37;;;;;;;30.33;23.67;;;8.60;1.00;;;;;;5092577;28;20112;-77
2022/03/17 01:49:51;;;;;;;31.10;24.55;;;8.70;1.00;;;;;;5077201;28;20036;-77
2022/03/17 01:52:20;;;;;;;30.20;22.92;;;8.70;1.00;;;;;;5077967;28;20040;-76
2022/03/17 01:54:47;;;;;;;31.45;23.23;;;8.60;1.00;;;;;;5077948;28;20067;-77
2022/03/17 01:57:15;;;;;;;30.45;23.30;;;8.60;1.00;;;;;;5075704;28;20068;-77
2022/03/17 01:59:42;;;;;;;27.73;23.40;;;8.60;1.00;;;;;;5076096;28;20059;-77
2022/03/17 02:02:11;;;;;;;29.52;23.85;;;8.60;1.00;;;;;;5075864;28;20112;-76
2022/03/17 02:04:40;;;;;;;30.90;23.95;;;8.50;1.00;;;;;;5076924;28;20044;-77
2022/03/17 02:07:09;;;;;;;31.60;24.58;;;8.50;1.00;;;;;;5074584;28;20044;-77
2022/03/17 02:09:38;;;;;;;32.38;23.40;;;8.50;1.00;;;;;;5075033;28;20040;-77
2022/03/17 02:14:53;;;;;;;31.63;23.52;;;8.50;1.00;;;;;;5075202;28;20052;-76
2022/03/17 02:17:22;;;;;;;27.75;22.70;;;8.50;1.00;;;;;;5076407;28;20071;-77
2022/03/17 02:19:50;;;;;;;31.65;24.38;;;8.50;1.00;;;;;;5074575;28;20059;-76
2022/03/17 02:22:20;;;;;;;29.17;24.17;;;8.50;1.00;;;;;;5091005;28;20139;-78
2022/03/17 02:27:41;;;;;;;28.75;22.02;;;8.50;1.00;;;;;;5074660;28;20530;-76
2022/03/17 02:30:09;;;;;;;30.17;22.35;;;8.50;1.00;;;;;;5074238;28;20048;-77
2022/03/17 02:32:37;;;;;;;27.60;22.45;;;8.50;1.00;;;;;;5075641;28;20036;-78
2022/03/17 02:35:07;;;;;;;27.60;22.13;;;8.50;1.00;;;;;;5093973;28;20044;-77
2022/03/17 02:37:34;;;;;;;29.92;23.95;;;8.50;1.00;;;;;;5072126;28;20046;-77
2022/03/17 02:40:06;;;;;;;28.27;22.98;;;8.50;1.00;;;;;;5075282;28;20502;-77
2022/03/17 02:42:34;;;;;;;29.65;23.33;;;8.60;1.00;;;;;;5075466;28;20044;-79
2022/03/17 02:45:02;;;;;;;28.98;23.83;;;8.50;1.00;;;;;;5074412;28;20491;-77
2022/03/17 02:47:30;;;;;;;31.40;23.42;;;8.50;1.00;;;;;;5073971;28;20055;-78
2022/03/17 02:49:58;;;;;;;33.83;24.88;;;8.50;1.00;;;;;;5074485;28;20059;-77
2022/03/17 02:52:26;;;;;;;30.83;23.52;;;8.40;1.00;;;;;;5073445;28;20052;-76
2022/03/17 02:54:55;;;;;;;29.80;23.70;;;8.40;1.00;;;;;;5073427;28;20461;-77
2022/03/17 02:57:24;;;;;;;29.15;23.02;;;8.40;1.00;;;;;;5073550;28;20048;-77
2022/03/17 02:59:52;;;;;;;34.63;25.80;;;8.30;1.00;;;;;;5090755;28;20423;-76
2022/03/17 03:02:20;;;;;;;33.30;25.63;;;8.40;1.00;;;;;;5074750;28;20043;-78
2022/03/17 03:04:48;;;;;;;31.67;24.85;;;8.40;1.00;;;;;;5073776;28;20079;-77
2022/03/17 03:07:15;;;;;;;34.97;25.05;;;8.40;1.00;;;;;;5085093;28;20454;-76
2022/03/17 03:09:43;;;;;;;34.05;25.05;;;8.40;1.00;;;;;;5082490;28;20036;-78
2022/03/17 03:12:11;;;;;;;35.20;25.92;;;8.50;1.00;;;;;;5075483;28;20037;-77
2022/03/17 03:14:40;;;;;;;46.65;30.63;;;8.50;1.00;;;;;;5061208;28;20507;-77
2022/03/17 03:17:07;;;;;;;35.42;26.08;;;8.50;1.00;;;;;;5054872;28;20063;-78
2022/03/17 03:19:35;;;;;;;35.58;26.95;;;8.50;1.00;;;;;;5063775;28;20066;-79
2022/03/17 03:22:03;;;;;;;42.00;29.75;;;8.50;1.00;;;;;;5074838;28;20420;-77
2022/03/17 03:24:31;;;;;;;47.53;33.15;;;8.50;1.00;;;;;;5073608;28;20114;-76
2022/03/17 03:26:58;;;;;;;50.90;33.95;;;8.50;1.00;;;;;;5073619;28;20139;-77
2022/03/17 03:29:26;;;;;;;35.75;27.08;;;8.40;1.00;;;;;;5073291;28;20055;-77
2022/03/17 03:31:56;;;;;;;36.25;26.48;;;8.40;1.00;;;;;;5073680;28;20495;-77
2022/03/17 03:34:25;;;;;;;33.88;25.95;;;8.30;1.00;;;;;;5088745;28;20044;-78
2022/03/17 03:39:39;;;;;;;37.00;27.55;;;8.30;1.00;;;;;;5061791;28;20380;-77
2022/03/17 03:42:08;;;;;;;35.97;26.48;;;8.30;1.00;;;;;;5080657;28;20085;-78
2022/03/17 03:44:36;;;;;;;31.95;25.75;;;8.30;1.00;;;;;;5076229;28;20044;-77
2022/03/17 03:47:05;;;;;;;33.33;26.95;;;8.40;5.50;;;;;;5073042;28;20557;-76
2022/03/17 03:49:34;;;;;;;34.63;27.23;;;8.40;29.90;;;;;;5073342;28;20102;-76
2022/03/17 03:52:01;;;;;;;36.72;27.67;;;8.40;78.00;;;;;;5072339;28;20044;-76
2022/03/17 03:54:29;;;;;;;42.22;30.42;;;8.40;99.90;;;;;;5074598;28;20507;-76
2022/03/17 03:56:58;;;;;;;43.03;31.30;;;8.40;99.90;;;;;;5075023;28;20044;-76
2022/03/17 03:59:28;;;;;;;42.35;31.35;;;8.30;99.90;;;;;;5073497;28;20048;-75
2022/03/17 04:01:57;;;;;;;44.83;32.45;;;8.20;99.90;;;;;;5073278;28;20032;-77
2022/03/17 04:04:28;;;;;;;42.45;31.75;;;8.10;99.90;;;;;;5073986;28;20511;-76
2022/03/17 04:06:58;;;;;;;43.75;32.90;;;8.10;99.90;;;;;;5071567;28;20123;-76
2022/03/17 04:09:27;;;;;;;43.13;32.38;;;8.10;99.90;;;;;;5072217;28;20072;-77
2022/03/17 04:11:55;;;;;;;45.63;34.63;;;8.10;99.90;;;;;;5067050;28;20099;-78
2022/03/17 04:14:23;;;;;;;43.35;31.83;;;8.10;99.90;;;;;;5077971;28;20037;-77
2022/03/17 04:16:52;;;;;;;41.88;31.65;;;8.20;99.90;;;;;;5074611;28;20058;-77
2022/03/17 04:19:19;;;;;;;42.33;32.55;;;8.10;99.90;;;;;;5066026;28;20055;-78
2022/03/17 04:21:49;;;;;;;39.15;31.55;;;8.10;1.00;;;;;;5065410;28;20041;-78
2022/03/17 04:24:18;;;;;;;42.45;33.05;;;8.00;1.00;;;;;;5074323;28;20041;-78
2022/03/17 04:26:46;;;;;;;45.70;32.65;;;8.00;1.00;;;;;;5073813;28;20043;-78
2022/03/17 04:29:13;;;;;;;48.67;35.58;;;8.10;1.00;;;;;;5072075;28;20041;-77
2022/03/17 04:31:43;;;;;;;48.95;35.35;;;8.00;1.00;;;;;;5072635;28;20048;-77
2022/03/17 04:34:11;;;;;;;49.22;36.65;;;7.90;1.00;;;;;;5084764;28;20040;-76
2022/03/17 04:36:39;;;;;;;47.92;35.80;;;7.90;1.00;;;;;;5079445;28;20049;-77
2022/03/17 04:39:11;;;;;;;49.80;36.33;;;7.80;1.00;;;;;;5074648;28;20045;-78
2022/03/17 04:41:39;;;;;;;47.88;37.53;;;7.90;1.00;;;;;;5073212;28;20048;-76
2022/03/17 04:44:07;;;;;;;48.72;37.90;;;7.80;1.00;;;;;;5072742;28;20460;-79
2022/03/17 04:46:35;;;;;;;50.47;36.47;;;7.70;1.00;;;;;;5073756;28;20139;-78
2022/03/17 04:49:04;;;;;;;50.65;36.33;;;7.70;1.00;;;;;;5073527;28;20049;-78
2022/03/17 04:51:32;;;;;;;45.55;36.15;;;7.70;44.60;;;;;;5085846;28;20084;-78
2022/03/17 04:54:00;;;;;;;45.08;34.97;;;7.70;87.00;;;;;;5097639;28;20067;-79
2022/03/17 04:56:29;;;;;;;48.42;36.20;;;7.80;99.90;;;;;;5097081;28;20027;-79
2022/03/17 04:58:56;;;;;;;53.63;36.58;;;7.80;99.90;;;;;;5096641;28;20040;-78
2022/03/17 05:01:24;;;;;;;48.50;36.85;;;7.70;99.90;;;;;;5097707;28;20055;-78
2022/03/17 05:03:53;;;;;;;52.03;37.90;;;7.70;99.90;;;;;;5096918;28;20048;-77
2022/03/17 05:06:20;;;;;;;49.17;37.95;;;7.70;99.90;;;;;;5096248;28;20044;-78
2022/03/17 05:08:48;;;;;;;55.33;39.17;;;7.70;99.90;;;;;;5098080;28;20031;-77
2022/03/17 05:11:16;;;;;;;52.22;38.00;;;7.80;99.90;;;;;;5098692;28;20028;-79
2022/03/17 05:13:46;;;;;;;49.05;37.95;;;7.80;99.90;;;;;;5100088;28;20063;-78
2022/03/17 05:16:14;;;;;;;55.55;40.10;;;7.80;99.90;;;;;;5096655;28;20048;-78
2022/03/17 05:18:42;;;;;;;48.53;38.15;;;7.80;99.90;;;;;;5086138;28;20503;-79
2022/03/17 05:21:09;;;;;;;53.45;38.75;;;7.90;99.90;;;;;;5080346;28;20036;-80
2022/03/17 05:23:38;;;;;;;48.15;37.13;;;7.80;99.90;;;;;;5080617;28;20483;-76
2022/03/17 05:26:08;;;;;;;50.80;38.05;;;7.90;99.90;;;;;;5072763;28;20041;-76
2022/03/17 05:28:35;;;;;;;51.80;38.80;;;7.90;99.90;;;;;;5075725;28;20120;-76
2022/03/17 05:31:05;;;;;;;51.20;39.60;;;8.00;99.90;;;;;;5104036;22;20108;-79
2022/03/17 05:33:32;;;;;;;53.38;40.70;;;8.00;99.90;;;;;;5097631;28;20040;-78
2022/03/17 05:36:00;;;;;;;52.03;41.28;;;7.90;99.90;;;;;;5110753;28;20082;-79
2022/03/17 05:38:28;;;;;;;67.35;43.42;;;8.00;99.90;;;;;;5093691;28;20110;-78
2022/03/17 05:40:56;;;;;;;52.88;40.20;;;8.10;99.90;;;;;;5089211;28;20064;-78
2022/03/17 05:43:24;;;;;;;53.58;38.40;;;8.00;99.90;;;;;;5090242;28;20037;-80
2022/03/17 05:45:51;;;;;;;49.20;38.92;;;8.10;99.90;;;;;;5092125;28;20122;-79
2022/03/17 05:48:20;;;;;;;56.17;38.97;;;8.10;99.90;;;;;;5084307;28;20127;-77
2022/03/17 05:50:48;;;;;;;51.92;39.40;;;8.20;99.90;;;;;;5084094;28;20491;-78
2022/03/17 05:53:15;;;;;;;50.80;38.30;;;8.30;99.90;;;;;;5083876;28;20045;-79
2022/03/17 05:55:43;;;;;;;48.63;37.08;;;8.40;99.90;;;;;;5085266;28;20072;-79
2022/03/17 05:58:10;;;;;;;52.58;36.95;;;8.40;99.90;;;;;;5105734;28;20130;-78
2022/03/17 06:00:38;;;;;;;47.28;34.28;;;8.50;10.80;;;;;;5105707;28;20044;-80
2022/03/17 06:03:05;;;;;;;45.13;35.05;;;8.50;1.00;;;;;;5096592;28;20044;-79
2022/03/17 06:05:34;;;;;;;45.97;33.38;;;8.50;1.00;;;;;;5088507;28;20055;-80
2022/03/17 06:08:03;;;;;;;46.70;34.92;;;8.50;1.00;;;;;;5082081;28;20052;-79
2022/03/17 06:10:33;;;;;;;47.92;35.17;;;8.50;1.00;;;;;;5087117;28;20127;-79
2022/03/17 06:13:02;;;;;;;47.38;36.38;;;8.50;1.00;;;;;;5089038;28;20064;-80
2022/03/17 06:15:31;;;;;;;50.47;36.08;;;8.50;1.00;;;;;;5087916;28;20056;-77
2022/03/17 06:17:59;;;;;;;50.42;36.70;;;8.40;1.00;;;;;;5086554;28;20044;-80
2022/03/17 06:20:28;;;;;;;45.53;34.78;;;8.40;1.00;;;;;;5095069;28;20088;-79
2022/03/17 06:22:58;;;;;;;51.55;37.53;;;8.50;1.00;;;;;;5062571;28;20135;-79
2022/03/17 06:25:27;;;;;;;44.55;34.00;;;8.60;1.00;;;;;;5062038;28;20049;-78
2022/03/17 06:27:55;;;;;;;44.08;33.40;;;8.60;1.00;;;;;;5079189;28;20098;-77
2022/03/17 06:30:26;;;;;;;48.75;33.40;;;8.70;1.00;;;;;;5078029;28;20064;-79
2022/03/17 06:32:54;;;;;;;44.97;32.67;;;8.80;1.00;;;;;;5081635;28;20032;-79
2022/03/17 06:35:23;;;;;;;45.10;31.98;;;8.80;1.00;;;;;;5087879;28;20045;-79
2022/03/17 06:37:53;;;;;;;39.90;31.33;;;8.80;1.00;;;;;;5072709;28;20045;-78
2022/03/17 06:40:23;;;;;;;37.47;29.40;;;8.80;1.00;;;;;;5079954;28;20510;-79
2022/03/17 06:42:52;;;;;;;42.53;33.17;;;8.90;1.00;;;;;;5072643;28;20041;-78
2022/03/17 06:45:20;;;;;;;56.78;41.20;;;8.90;1.00;;;;;;5079182;28;20064;-78
2022/03/17 06:47:48;;;;;;;88.30;56.50;;;8.80;1.00;;;;;;5078269;28;20076;-80
2022/03/17 06:50:17;;;;;;;91.28;60.22;;;8.80;1.00;;;;;;5080681;28;20080;-79
2022/03/17 06:52:45;;;;;;;85.50;58.53;;;8.80;1.00;;;;;;5081714;28;20108;-79
2022/03/17 06:55:13;;;;;;;93.47;62.78;;;8.80;1.00;;;;;;5080709;28;20044;-77
2022/03/17 06:57:43;;;;;;;118.13;73.25;;;8.90;1.00;;;;;;5082709;28;20044;-79
2022/03/17 07:00:13;;;;;;;99.50;63.25;;;8.90;1.00;;;;;;5087401;28;20044;-78
2022/03/17 07:02:40;;;;;;;81.90;56.20;;;9.00;1.00;;;;;;5088322;28;20110;-79
2022/03/17 07:05:09;;;;;;;82.47;56.83;;;9.00;1.00;;;;;;5089166;28;20087;-77
2022/03/17 07:07:36;;;;;;;74.18;53.55;;;9.20;1.00;;;;;;5084556;28;20145;-78
2022/03/17 07:10:06;;;;;;;84.22;56.03;;;9.20;1.00;;;;;;5079379;28;20055;-78
2022/03/17 07:12:33;;;;;;;80.45;56.92;;;9.20;1.00;;;;;;5079915;28;20144;-79
2022/03/17 07:15:03;;;;;;;90.25;54.75;;;9.10;1.00;;;;;;5078576;28;20083;-78
2022/03/17 07:17:39;;;;;;;79.00;53.92;;;9.10;1.00;;;;;;5078971;28;20058;-78
2022/03/17 07:20:09;;;;;;;81.93;53.10;;;8.90;1.00;;;;;;5065453;28;20415;-79
2022/03/17 07:22:39;;;;;;;76.18;53.60;;;8.90;1.00;;;;;;5059054;28;21996;-80
2022/03/17 07:25:09;;;;;;;79.75;54.80;;;8.90;1.00;;;;;;5058091;28;20040;-78
2022/03/17 07:27:40;;;;;;;86.63;59.90;;;8.90;1.00;;;;;;5073968;28;20147;-78
2022/03/17 07:30:12;;;;;;;75.00;52.22;;;8.90;1.00;;;;;;5078133;28;20053;-78
2022/03/17 07:32:40;;;;;;;69.47;50.08;;;8.90;1.00;;;;;;5078485;28;20070;-80
2022/03/17 07:35:09;;;;;;;74.25;49.55;;;8.90;1.00;;;;;;5099332;28;20059;-79
2022/03/17 07:37:36;;;;;;;66.45;48.05;;;8.90;1.00;;;;;;5101737;28;20082;-78
2022/03/17 07:40:04;;;;;;;65.00;47.75;;;9.00;1.00;;;;;;5113884;28;20093;-78
2022/03/17 07:42:31;;;;;;;71.80;49.78;;;9.00;1.00;;;;;;5111300;28;20036;-76
2022/03/17 07:45:19;;;;;;;85.90;51.10;;;8.90;1.00;;;;;;5106630;28;20054;-79
2022/03/17 07:48:06;;;;;;;69.97;50.28;;;8.90;1.00;;;;;;5102297;28;20576;-76
2022/03/17 07:50:34;;;;;;;77.93;56.55;;;8.90;1.00;;;;;;5098799;28;20082;-77
2022/03/17 07:53:02;;;;;;;79.22;52.80;;;8.90;1.00;;;;;;5096370;28;20044;-77
2022/03/17 07:55:29;;;;;;;70.47;49.03;;;9.00;1.00;;;;;;5097921;28;20087;-77
2022/03/17 07:57:57;;;;;;;66.03;49.50;;;9.10;1.00;;;;;;5098026;28;20050;-78
2022/03/17 08:00:26;;;;;;;69.75;47.55;;;9.30;99.90;;;;;;5097203;28;20054;-77
2022/03/17 08:02:54;;;;;;;60.92;45.70;;;9.50;99.90;;;;;;5099828;28;20078;-79
2022/03/17 08:05:22;;;;;;;61.70;42.58;;;9.50;99.90;;;;;;5098287;28;20044;-78
2022/03/17 08:07:49;;;;;;;62.83;42.90;;;9.60;99.90;;;;;;5097503;28;20052;-78
2022/03/17 08:10:17;;;;;;;58.95;41.10;;;9.60;99.90;;;;;;5095940;28;20044;-77
2022/03/17 08:12:44;;;;;;;52.03;37.78;;;9.80;99.90;;;;;;5099446;28;20423;-79
2022/03/17 08:15:12;;;;;;;56.40;40.22;;;9.90;99.90;;;;;;5102250;28;20059;-77
2022/03/17 08:17:41;;;;;;;55.15;40.97;;;10.00;99.90;;;;;;5102873;28;20071;-79
2022/03/17 08:20:10;;;;;;;59.10;42.15;;;10.00;99.90;;;;;;5090036;28;20040;-79
2022/03/17 08:22:40;;;;;;;57.80;42.63;;;10.00;99.90;;;;;;5085978;28;20048;-79
2022/03/17 08:25:09;;;;;;;60.60;43.25;;;10.00;99.90;;;;;;5087051;28;20044;-78
2022/03/17 08:27:40;;;;;;;68.95;44.63;;;10.00;99.90;;;;;;5082197;28;20052;-77
2022/03/17 08:30:08;;;;;;;59.67;43.00;;;10.00;99.90;;;;;;5078693;28;20131;-79
2022/03/17 08:32:36;;;;;;;69.35;45.90;;;9.90;99.90;;;;;;5080312;28;20047;-78
2022/03/17 08:35:05;;;;;;;58.40;42.42;;;9.80;99.90;;;;;;5099506;28;20463;-79
2022/03/17 08:37:38;;;;;;;55.35;41.03;;;9.70;99.90;;;;;;5100174;28;20051;-79
2022/03/17 08:40:07;;;;;;;63.83;43.35;;;9.70;99.90;;;;;;5099850;28;20044;-79
2022/03/17 08:42:34;;;;;;;59.35;42.08;;;9.70;99.90;;;;;;5097125;28;20048;-77
2022/03/17 08:49:18;;;;;;;57.85;40.45;;;9.80;99.90;;;;;;5102830;28;20132;-78
2022/03/17 08:50:39;;;;;;;66.70;44.65;;;9.70;99.90;;;;;;5101849;28;20036;-79
2022/03/17 08:53:07;;;;;;;58.35;40.55;;;9.70;99.90;;;;;;5099966;28;20046;-78
2022/03/17 08:55:36;;;;;;;56.88;39.08;;;9.90;99.90;;;;;;5099999;28;20051;-78
2022/03/17 08:58:04;;;;;;;51.55;35.50;;;9.70;99.90;;;;;;5100412;28;20052;-78
2022/03/17 09:00:34;;;;;;;49.55;36.22;;;9.70;99.90;;;;;;5100692;28;20048;-79
2022/03/17 09:03:02;;;;;;;54.63;34.40;;;9.70;99.90;;;;;;5102046;28;20046;-77
2022/03/17 09:05:33;;;;;;;44.05;32.00;;;9.80;91.40;;;;;;5100001;28;20487;-78
2022/03/17 09:08:04;;;;;;;43.22;32.15;;;9.90;72.50;;;;;;5098175;28;20058;-77
2022/03/17 09:10:31;;;;;;;45.30;31.50;;;10.10;57.60;;;;;;5097560;28;20074;-77
2022/03/17 09:13:05;;;;;;;31.40;24.30;;;10.30;28.20;;;;;;5097685;28;20094;-76
2022/03/17 09:15:33;;;;;;;35.03;24.02;;;10.40;1.00;;;;;;5097975;28;20044;-76
2022/03/17 09:18:01;;;;;;;32.17;23.52;;;10.40;1.00;;;;;;5097931;28;20506;-76
2022/03/17 09:20:28;;;;;;;32.22;24.02;;;10.40;1.00;;;;;;5079794;28;20066;-76
2022/03/17 09:22:56;;;;;;;34.13;25.23;;;10.60;1.00;;;;;;5076933;28;20048;-77
2022/03/17 09:25:28;;;;;;;30.48;24.08;;;10.80;1.00;;;;;;5078325;28;20044;-77
2022/03/17 09:27:56;;;;;;;31.48;23.20;;;10.90;1.00;;;;;;5079485;28;20055;-76
2022/03/17 09:30:24;;;;;;;33.03;23.85;;;10.90;1.00;;;;;;5077659;28;20056;-76
2022/03/17 09:32:54;;;;;;;31.88;24.02;;;10.80;1.00;;;;;;5080829;28;20047;-78
2022/03/17 09:35:22;;;;;;;36.80;24.95;;;10.90;1.00;;;;;;5100004;28;20044;-75
2022/03/17 09:37:50;;;;;;;31.38;22.48;;;11.10;1.00;;;;;;5100130;28;20061;-76
2022/03/17 09:40:17;;;;;;;26.83;22.58;;;11.30;1.00;;;;;;5098268;28;20040;-77
2022/03/17 09:42:47;;;;;;;28.05;22.40;;;11.50;1.00;;;;;;5097106;28;20044;-76
2022/03/17 09:45:15;;;;;;;29.35;24.02;;;11.50;1.00;;;;;;5096890;28;20068;-77
2022/03/17 09:47:44;;;;;;;34.70;22.08;;;11.50;1.00;;;;;;5096955;28;20053;-77
2022/03/17 09:50:16;;;;;;;25.58;20.83;;;11.40;1.00;;;;;;5095532;28;20083;-76
2022/03/17 09:52:47;;;;;;;30.88;21.33;;;11.30;1.00;;;;;;5098754;28;20503;-76
2022/03/17 09:55:15;;;;;;;26.80;21.38;;;11.10;1.00;;;;;;5096176;28;20052;-77
2022/03/17 09:57:43;;;;;;;32.97;21.27;;;11.10;1.00;;;;;;5096845;28;20126;-77
2022/03/17 10:00:15;;;;;;;31.48;21.85;;;11.10;1.00;;;;;;5096855;28;20568;-76
2022/03/17 10:02:43;;;;;;;31.13;22.33;;;11.10;1.00;;;;;;5096398;28;20040;-76
2022/03/17 10:05:11;;;;;;;33.72;26.63;;;11.10;1.00;;;;;;5098146;28;20132;-77
2022/03/17 10:07:39;;;;;;;29.27;23.50;;;11.00;1.00;;;;;;5097531;28;20126;-77
2022/03/17 10:10:08;;;;;;;30.08;21.85;;;11.00;1.00;;;;;;5097193;28;20036;-76
2022/03/17 10:12:36;;;;;;;31.77;22.73;;;11.00;1.00;;;;;;5096029;28;20402;-77
2022/03/17 10:15:05;;;;;;;35.03;25.42;;;11.00;1.00;;;;;;5097348;28;20089;-76
2022/03/17 10:17:36;;;;;;;39.58;25.42;;;11.00;1.00;;;;;;5095961;28;20048;-77
2022/03/17 10:20:16;;;;;;;34.35;23.85;;;11.00;1.00;;;;;;5084211;28;20074;-77
2022/03/17 10:22:48;;;;;;;34.50;25.13;;;11.10;1.00;;;;;;5075110;28;20353;-77
2022/03/17 10:25:18;;;;;;;36.05;25.13;;;11.00;1.00;;;;;;5074758;28;20040;-76
2022/03/17 10:27:49;;;;;;;36.65;25.38;;;11.00;1.00;;;;;;5077731;28;20040;-77
2022/03/17 10:30:22;;;;;;;33.05;23.65;;;11.00;1.00;;;;;;5084861;28;20396;-78
2022/03/17 10:32:57;;;;;;;39.53;29.05;;;11.10;1.00;;;;;;5079362;28;20136;-78
2022/03/17 10:35:27;;;;;;;58.25;38.10;;;11.10;1.00;;;;;;5078674;28;20055;-77
2022/03/17 10:37:55;;;;;;;50.95;36.65;;;11.00;1.00;;;;;;5076179;28;20075;-77
2022/03/17 10:40:31;;;;;;;60.75;37.90;;;10.70;1.00;;;;;;5078170;28;20471;-78
2022/03/17 10:43:20;;;;;;;51.00;37.40;;;10.60;1.00;;;;;;5078062;28;20048;-77
2022/03/17 10:45:48;;;;;;;56.58;38.53;;;10.60;1.00;;;;;;5075567;28;20037;-76
2022/03/17 10:48:17;;;;;;;52.08;35.70;;;10.70;1.00;;;;;;5077348;28;20040;-76
2022/03/17 10:50:45;;;;;;;55.92;38.60;;;10.80;1.00;;;;;;5076136;28;20048;-78
2022/03/17 10:53:13;;;;;;;65.75;38.15;;;11.00;1.00;;;;;;5074837;28;20565;-77
2022/03/17 10:55:40;;;;;;;48.78;33.60;;;11.10;1.00;;;;;;5076639;28;20049;-76
2022/03/17 10:58:15;;;;;;;49.00;32.40;;;10.90;1.00;;;;;;5077618;28;20086;-76
2022/03/17 11:00:48;;;;;;;41.70;30.80;;;10.80;1.00;;;;;;5075731;28;20123;-76
2022/03/17 11:03:19;;;;;;;45.25;31.30;;;10.70;1.00;;;;;;5073741;28;20098;-77
2022/03/17 11:05:51;;;;;;;43.10;30.48;;;10.90;1.00;;;;;;5072809;28;20425;-76
2022/03/17 11:08:18;;;;;;;39.97;29.15;;;11.20;1.00;;;;;;5075198;28;20499;-77
2022/03/17 11:10:46;;;;;;;46.53;31.30;;;11.20;1.00;;;;;;5075647;28;20049;-77
2022/03/17 11:13:13;;;;;;;41.45;27.80;;;11.20;1.00;;;;;;5075448;28;20048;-76
2022/03/17 11:15:45;;;;;;;27.48;21.50;;;11.30;1.00;;;;;;5074057;28;20044;-76
2022/03/17 11:18:17;;;;;;;31.13;22.33;;;11.40;1.00;;;;;;5075301;28;20037;-76
2022/03/17 11:20:47;;;;;;;33.67;25.75;;;11.50;1.00;;;;;;5073113;28;20055;-76
2022/03/17 11:23:20;;;;;;;32.08;24.35;;;11.80;1.00;;;;;;5078909;28;20495;-76
2022/03/17 11:25:53;;;;;;;35.53;25.08;;;11.80;1.00;;;;;;5076222;28;20111;-76
2022/03/17 11:28:32;;;;;;;32.20;23.67;;;11.90;1.00;;;;;;5074563;28;20053;-77
2022/03/17 11:31:03;;;;;;;44.80;23.75;;;11.80;1.00;;;;;;5072728;28;20525;-76
2022/03/17 11:33:33;;;;;;;33.83;22.55;;;11.70;1.00;;;;;;5075376;28;20044;-76
2022/03/17 11:36:13;;;;;;;33.40;24.73;;;11.70;1.00;;;;;;5074453;28;20127;-75
2022/03/17 11:41:23;;;;;;;32.53;22.83;;;11.70;1.00;;;;;;5072051;28;20059;-76
2022/03/17 11:44:02;;;;;;;26.58;20.77;;;11.80;1.00;;;;;;5072727;28;20040;-76
2022/03/17 11:46:39;;;;;;;20.75;17.17;;;11.70;1.00;;;;;;5075936;28;20048;-75
2022/03/17 11:49:27;;;;;;;25.23;18.95;;;11.40;1.00;;;;;;5076445;28;20053;-75
2022/03/17 11:51:58;;;;;;;20.98;17.25;;;11.20;1.00;;;;;;5086441;28;20090;-75
2022/03/17 11:54:27;;;;;;;22.55;18.27;;;11.00;1.00;;;;;;5091026;28;20045;-75
2022/03/17 11:56:55;;;;;;;21.80;17.95;;;11.10;1.00;;;;;;5078207;28;20521;-76
2022/03/17 11:59:28;;;;;;;23.00;17.58;;;11.00;1.00;;;;;;5074311;28;20044;-75
2022/03/17 12:01:57;;;;;;;24.63;19.50;;;11.30;1.00;;;;;;5073004;28;20040;-75
2022/03/17 12:04:30;;;;;;;21.25;16.63;;;11.50;1.00;;;;;;5073869;28;20032;-75
2022/03/17 12:07:10;;;;;;;21.77;17.83;;;11.50;1.00;;;;;;5074630;28;20041;-76
2022/03/17 12:09:38;;;;;;;21.98;18.60;;;11.60;1.00;;;;;;5074000;28;20083;-76
2022/03/17 12:12:18;;;;;;;26.50;20.70;;;11.70;1.00;;;;;;5073176;28;20040;-75
2022/03/17 12:14:50;;;;;;;33.10;23.27;;;11.90;1.00;;;;;;5072815;28;20114;-76
2022/03/17 12:17:21;;;;;;;33.03;23.52;;;12.00;1.00;;;;;;5075913;28;20510;-75
2022/03/17 12:19:51;;;;;;;33.67;24.95;;;11.80;1.00;;;;;;5078451;28;20072;-74
2022/03/17 12:22:36;;;;;;;38.22;27.75;;;11.80;1.00;;;;;;5078289;28;20136;-75
2022/03/17 12:25:14;;;;;;;32.17;24.30;;;11.90;1.00;;;;;;5078072;28;20044;-76
2022/03/17 12:27:43;;;;;;;30.50;22.98;;;11.90;1.00;;;;;;5078010;28;20042;-75
2022/03/17 12:30:13;;;;;;;23.38;18.85;;;11.80;1.00;;;;;;5057855;28;20055;-76
2022/03/17 12:32:42;;;;;;;23.83;18.90;;;11.60;1.00;;;;;;5058134;28;20041;-75
2022/03/17 12:35:10;;;;;;;36.28;26.65;;;11.50;1.00;;;;;;5066659;28;20517;-76
2022/03/17 12:37:41;;;;;;;31.48;24.02;;;11.70;1.00;;;;;;5078378;28;20604;-77
2022/03/17 12:40:13;;;;;;;36.17;26.00;;;11.90;1.00;;;;;;5077718;28;20041;-76
2022/03/17 12:42:44;;;;;;;26.73;20.33;;;12.00;1.00;;;;;;5077185;28;20048;-76
2022/03/17 12:45:13;;;;;;;29.70;22.73;;;12.00;1.00;;;;;;5077557;28;20402;-76
2022/03/17 12:47:42;;;;;;;26.10;20.27;;;11.70;1.00;;;;;;5077799;28;20055;-76
2022/03/17 12:50:11;;;;;;;26.30;20.48;;;11.70;1.00;;;;;;5063876;28;20396;-75
2022/03/17 12:52:42;;;;;;;27.17;21.60;;;11.30;1.00;;;;;;5075608;28;20072;-75
2022/03/17 12:55:12;;;;;;;28.60;22.48;;;11.30;1.00;;;;;;5080503;28;20518;-75
2022/03/17 12:57:40;;;;;;;28.30;20.85;;;11.40;1.00;;;;;;5077807;28;20036;-78
2022/03/17 13:00:10;;;;;;;26.52;21.30;;;11.30;1.00;;;;;;5077054;28;20056;-77
2022/03/17 13:02:38;;;;;;;35.47;25.10;;;11.20;1.00;;;;;;5060063;28;20499;-77
2022/03/17 13:07:50;;;;;;;33.15;24.75;;;11.30;1.00;;;;;;5076611;28;20045;-76
2022/03/17 13:10:17;;;;;;;30.85;23.08;;;11.50;1.00;;;;;;5077776;28;20049;-75
2022/03/17 13:15:29;;;;;;;34.63;25.25;;;11.20;1.00;;;;;;5077184;28;20506;-76